sensor_id;sensor_type;location;lat;lon;timestamp;pressure;altitude;pressure_sealevel;temperature;humidity
34370;BME280;20635;55.812;37.560;2023-02-20T00:00:34;97289.16;;;23.62;21.94
34370;BME280;20635;55.812;37.560;2023-02-20T00:03:02;97284.41;;;23.62;21.56
34370;BME280;20635;55.812;37.560;2023-02-20T00:05:28;97284.41;;;23.62;21.62
34370;BME280;20635;55.812;37.560;2023-02-20T00:07:54;97280.78;;;23.62;21.77
34370;BME280;20635;55.812;37.560;2023-02-20T00:10:19;97287.19;;;23.62;21.80
34370;BME280;20635;55.812;37.560;2023-02-20T00:12:45;97280.41;;;23.63;21.55
34370;BME280;20635;55.812;37.560;2023-02-20T00:15:13;97288.00;;;23.63;21.76
34370;BME280;20635;55.812;37.560;2023-02-20T00:17:41;97287.66;;;23.64;21.67
34370;BME280;20635;55.812;37.560;2023-02-20T00:20:08;97284.00;;;23.64;21.83
34370;BME280;20635;55.812;37.560;2023-02-20T00:22:34;97284.41;;;23.62;21.46
34370;BME280;20635;55.812;37.560;2023-02-20T00:25:00;97284.00;;;23.64;21.43
34370;BME280;20635;55.812;37.560;2023-02-20T00:27:25;97283.22;;;23.63;21.53
34370;BME280;20635;55.812;37.560;2023-02-20T00:29:51;97286.81;;;23.64;21.76
34370;BME280;20635;55.812;37.560;2023-02-20T00:32:17;97286.81;;;23.64;21.84
34370;BME280;20635;55.812;37.560;2023-02-20T00:34:43;97277.63;;;23.63;21.43
34370;BME280;20635;55.812;37.560;2023-02-20T00:37:09;97286.81;;;23.64;21.75
34370;BME280;20635;55.812;37.560;2023-02-20T00:39:34;97280.41;;;23.63;21.63
34370;BME280;20635;55.812;37.560;2023-02-20T00:42:00;97284.84;;;23.64;21.50
34370;BME280;20635;55.812;37.560;2023-02-20T00:44:27;97276.81;;;23.63;21.42
34370;BME280;20635;55.812;37.560;2023-02-20T00:46:52;97286.00;;;23.63;21.82
34370;BME280;20635;55.812;37.560;2023-02-20T00:49:18;97276.00;;;23.62;21.69
34370;BME280;20635;55.812;37.560;2023-02-20T00:51:44;97282.41;;;23.63;21.58
34370;BME280;20635;55.812;37.560;2023-02-20T00:54:11;97280.41;;;23.63;21.73
34370;BME280;20635;55.812;37.560;2023-02-20T00:56:37;97272.03;;;23.63;21.80
34370;BME280;20635;55.812;37.560;2023-02-20T00:59:03;97268.44;;;23.63;21.59
34370;BME280;20635;55.812;37.560;2023-02-20T01:01:29;97277.97;;;23.62;21.49
34370;BME280;20635;55.812;37.560;2023-02-20T01:03:55;97281.22;;;23.64;21.73
34370;BME280;20635;55.812;37.560;2023-02-20T01:06:21;97272.84;;;23.64;21.42
34370;BME280;20635;55.812;37.560;2023-02-20T01:08:46;97268.44;;;23.63;21.41
34370;BME280;20635;55.812;37.560;2023-02-20T01:11:12;97274.81;;;23.63;21.74
34370;BME280;20635;55.812;37.560;2023-02-20T01:13:38;97271.22;;;23.63;21.52
34370;BME280;20635;55.812;37.560;2023-02-20T01:16:05;97274.03;;;23.63;21.39
34370;BME280;20635;55.812;37.560;2023-02-20T01:18:31;97274.03;;;23.63;21.38
34370;BME280;20635;55.812;37.560;2023-02-20T01:20:57;97276.00;;;23.62;21.53
34370;BME280;20635;55.812;37.560;2023-02-20T01:23:23;97286.00;;;23.63;21.31
34370;BME280;20635;55.812;37.560;2023-02-20T01:25:49;97280.41;;;23.63;21.70
34370;BME280;20635;55.812;37.560;2023-02-20T01:28:15;97285.19;;;23.63;21.60
34370;BME280;20635;55.812;37.560;2023-02-20T01:30:41;97273.22;;;23.62;21.36
34370;BME280;20635;55.812;37.560;2023-02-20T01:33:08;97290.78;;;23.63;21.56
34370;BME280;20635;55.812;37.560;2023-02-20T01:35:35;97284.75;;;23.61;21.61
34370;BME280;20635;55.812;37.560;2023-02-20T01:38:01;97288.00;;;23.63;21.64
34370;BME280;20635;55.812;37.560;2023-02-20T01:40:32;97287.19;;;23.62;21.67
34370;BME280;20635;55.812;37.560;2023-02-20T01:43:01;97291.59;;;23.63;21.67
34370;BME280;20635;55.812;37.560;2023-02-20T01:45:34;97288.81;;;23.63;21.60
34370;BME280;20635;55.812;37.560;2023-02-20T01:48:01;97288.00;;;23.63;21.67
34370;BME280;20635;55.812;37.560;2023-02-20T01:50:30;97293.22;;;23.64;21.38
34370;BME280;20635;55.812;37.560;2023-02-20T01:53:01;97294.03;;;23.65;21.28
34370;BME280;20635;55.812;37.560;2023-02-20T02:00:35;97296.03;;;23.64;21.51
34370;BME280;20635;55.812;37.560;2023-02-20T02:03:06;97297.63;;;23.65;21.30
34370;BME280;20635;55.812;37.560;2023-02-20T02:05:33;97298.81;;;23.64;21.72
34370;BME280;20635;55.812;37.560;2023-02-20T02:08:03;97296.03;;;23.64;21.29
34370;BME280;20635;55.812;37.560;2023-02-20T02:10:35;97302.03;;;23.66;21.27
34370;BME280;20635;55.812;37.560;2023-02-20T02:13:01;97299.63;;;23.65;21.21
34370;BME280;20635;55.812;37.560;2023-02-20T02:15:27;97304.41;;;23.64;21.51
34370;BME280;20635;55.812;37.560;2023-02-20T02:26:40;97313.66;;;23.68;21.29
34370;BME280;20635;55.812;37.560;2023-02-20T02:35:02;97311.66;;;23.69;21.62
34370;BME280;20635;55.812;37.560;2023-02-20T02:46:17;97319.25;;;23.68;21.41
34370;BME280;20635;55.812;37.560;2023-02-20T02:49:16;97328.06;;;23.70;21.33
34370;BME280;20635;55.812;37.560;2023-02-20T02:51:45;97320.44;;;23.67;21.34
34370;BME280;20635;55.812;37.560;2023-02-20T02:54:22;97312.84;;;23.68;21.35
34370;BME280;20635;55.812;37.560;2023-02-20T02:56:52;97321.25;;;23.68;21.19
34370;BME280;20635;55.812;37.560;2023-02-20T02:59:29;97311.25;;;23.67;21.28
34370;BME280;20635;55.812;37.560;2023-02-20T03:02:00;97310.06;;;23.68;21.36
34370;BME280;20635;55.812;37.560;2023-02-20T03:04:28;97318.44;;;23.68;21.24
34370;BME280;20635;55.812;37.560;2023-02-20T03:07:04;97312.47;;;23.69;21.24
34370;BME280;20635;55.812;37.560;2023-02-20T03:09:44;97327.66;;;23.68;21.22
34370;BME280;20635;55.812;37.560;2023-02-20T03:12:12;97321.25;;;23.68;21.24
34370;BME280;20635;55.812;37.560;2023-02-20T03:14:48;97324.47;;;23.70;21.25
34370;BME280;20635;55.812;37.560;2023-02-20T03:17:38;97329.25;;;23.69;21.31
34370;BME280;20635;55.812;37.560;2023-02-20T03:20:08;97326.84;;;23.68;21.25
34370;BME280;20635;55.812;37.560;2023-02-20T03:22:47;97329.25;;;23.69;21.26
34370;BME280;20635;55.812;37.560;2023-02-20T03:25:47;97334.91;;;23.73;21.30
34370;BME280;20635;55.812;37.560;2023-02-20T03:28:20;97328.06;;;23.70;21.41
34370;BME280;20635;55.812;37.560;2023-02-20T03:31:18;97330.91;;;23.74;21.30
34370;BME280;20635;55.812;37.560;2023-02-20T03:33:51;97331.66;;;23.71;21.41
34370;BME280;20635;55.812;37.560;2023-02-20T03:36:46;97336.09;;;23.72;21.47
34370;BME280;20635;55.812;37.560;2023-02-20T03:39:36;97322.09;;;23.72;21.20
34370;BME280;20635;55.812;37.560;2023-02-20T03:42:23;97326.91;;;23.71;21.47
34370;BME280;20635;55.812;37.560;2023-02-20T03:45:16;97331.31;;;23.72;21.24
34370;BME280;20635;55.812;37.560;2023-02-20T03:47:44;97336.09;;;23.72;21.39
34370;BME280;20635;55.812;37.560;2023-02-20T03:50:14;97331.31;;;23.72;21.40
34370;BME280;20635;55.812;37.560;2023-02-20T03:52:59;97328.50;;;23.72;21.13
34370;BME280;20635;55.812;37.560;2023-02-20T03:55:25;97328.88;;;23.71;21.50
34370;BME280;20635;55.812;37.560;2023-02-20T03:57:56;97336.50;;;23.74;21.49
34370;BME280;20635;55.812;37.560;2023-02-20T04:00:27;97340.09;;;23.74;21.28
34370;BME280;20635;55.812;37.560;2023-02-20T04:02:58;97342.91;;;23.74;21.41
34370;BME280;20635;55.812;37.560;2023-02-20T04:05:37;97344.09;;;23.73;21.26
34370;BME280;20635;55.812;37.560;2023-02-20T04:08:26;97346.13;;;23.76;21.48
34370;BME280;20635;55.812;37.560;2023-02-20T04:11:32;97346.56;;;23.78;21.15
34370;BME280;20635;55.812;37.560;2023-02-20T04:13:56;97344.53;;;23.75;21.36
34370;BME280;20635;55.812;37.560;2023-02-20T04:16:23;97338.94;;;23.75;21.38
34370;BME280;20635;55.812;37.560;2023-02-20T04:18:49;97336.16;;;23.75;21.47
34370;BME280;20635;55.812;37.560;2023-02-20T04:21:20;97326.56;;;23.76;20.99
34370;BME280;20635;55.812;37.560;2023-02-20T04:23:56;97327.38;;;23.77;21.10
34370;BME280;20635;55.812;37.560;2023-02-20T04:26:26;97330.16;;;23.77;21.25
34370;BME280;20635;55.812;37.560;2023-02-20T04:28:52;97327.38;;;23.77;21.41
34370;BME280;20635;55.812;37.560;2023-02-20T04:31:19;97331.34;;;23.76;21.48
34370;BME280;20635;55.812;37.560;2023-02-20T04:33:47;97334.97;;;23.76;21.50
34370;BME280;20635;55.812;37.560;2023-02-20T04:36:18;97328.97;;;23.78;21.13
34370;BME280;20635;55.812;37.560;2023-02-20T04:38:44;97331.78;;;23.78;21.07
34370;BME280;20635;55.812;37.560;2023-02-20T04:41:14;97338.16;;;23.78;21.50
34370;BME280;20635;55.812;37.560;2023-02-20T04:43:40;97348.56;;;23.78;21.23
34370;BME280;20635;55.812;37.560;2023-02-20T04:46:06;97346.56;;;23.78;21.19
34370;BME280;20635;55.812;37.560;2023-02-20T04:48:33;97352.94;;;23.79;21.12
34370;BME280;20635;55.812;37.560;2023-02-20T04:51:00;97356.94;;;23.78;21.41
34370;BME280;20635;55.812;37.560;2023-02-20T04:53:26;97362.53;;;23.78;21.10
34370;BME280;20635;55.812;37.560;2023-02-20T04:55:53;97360.53;;;23.78;21.10
34370;BME280;20635;55.812;37.560;2023-02-20T04:58:22;97366.13;;;23.78;21.07
34370;BME280;20635;55.812;37.560;2023-02-20T05:00:59;97359.72;;;23.78;21.16
34370;BME280;20635;55.812;37.560;2023-02-20T05:03:25;97362.53;;;23.78;21.09
34370;BME280;20635;55.812;37.560;2023-02-20T05:05:51;97354.94;;;23.78;21.16
34370;BME280;20635;55.812;37.560;2023-02-20T05:08:16;97356.94;;;23.78;21.17
34370;BME280;20635;55.812;37.560;2023-02-20T05:10:42;97361.34;;;23.79;21.37
34370;BME280;20635;55.812;37.560;2023-02-20T05:13:08;97360.53;;;23.78;21.09
34370;BME280;20635;55.812;37.560;2023-02-20T05:15:34;97367.75;;;23.79;21.05
34370;BME280;20635;55.812;37.560;2023-02-20T05:18:00;97372.53;;;23.79;21.08
34370;BME280;20635;55.812;37.560;2023-02-20T05:20:26;97358.53;;;23.79;20.99
34370;BME280;20635;55.812;37.560;2023-02-20T05:23:12;97365.31;;;23.78;21.30
34370;BME280;20635;55.812;37.560;2023-02-20T05:25:38;97371.38;;;23.80;21.34
34370;BME280;20635;55.812;37.560;2023-02-20T05:28:04;97361.34;;;23.79;21.23
34370;BME280;20635;55.812;37.560;2023-02-20T05:30:30;97359.34;;;23.79;21.49
34370;BME280;20635;55.812;37.560;2023-02-20T05:32:56;97364.13;;;23.79;21.16
34370;BME280;20635;55.812;37.560;2023-02-20T05:35:21;97366.94;;;23.79;21.03
34370;BME280;20635;55.812;37.560;2023-02-20T05:37:47;97366.56;;;23.81;21.29
34370;BME280;20635;55.812;37.560;2023-02-20T05:40:13;97369.72;;;23.79;21.21
34370;BME280;20635;55.812;37.560;2023-02-20T05:42:40;97365.78;;;23.80;21.07
34370;BME280;20635;55.812;37.560;2023-02-20T05:45:06;97369.38;;;23.81;21.21
34370;BME280;20635;55.812;37.560;2023-02-20T05:47:36;97368.56;;;23.80;21.09
34370;BME280;20635;55.812;37.560;2023-02-20T05:50:03;97374.97;;;23.81;21.38
34370;BME280;20635;55.812;37.560;2023-02-20T05:52:29;97370.53;;;23.79;21.25
34370;BME280;20635;55.812;37.560;2023-02-20T05:54:55;97374.97;;;23.81;21.23
34370;BME280;20635;55.812;37.560;2023-02-20T05:57:21;97375.31;;;23.79;21.04
34370;BME280;20635;55.812;37.560;2023-02-20T05:59:47;97373.31;;;23.79;21.00
34370;BME280;20635;55.812;37.560;2023-02-20T06:02:13;97381.34;;;23.81;21.25
34370;BME280;20635;55.812;37.560;2023-02-20T06:04:38;97386.97;;;23.81;21.22
34370;BME280;20635;55.812;37.560;2023-02-20T06:07:07;97386.97;;;23.81;21.36
34370;BME280;20635;55.812;37.560;2023-02-20T06:09:34;97382.56;;;23.80;21.12
34370;BME280;20635;55.812;37.560;2023-02-20T06:12:00;97389.75;;;23.81;20.95
34370;BME280;20635;55.812;37.560;2023-02-20T06:14:26;97388.56;;;23.82;21.33
34370;BME280;20635;55.812;37.560;2023-02-20T06:16:52;97396.94;;;23.82;21.24
34370;BME280;20635;55.812;37.560;2023-02-20T06:19:20;97390.56;;;23.82;21.08
34370;BME280;20635;55.812;37.560;2023-02-20T06:21:48;97399.75;;;23.82;21.20
34370;BME280;20635;55.812;37.560;2023-02-20T06:24:15;97410.13;;;23.82;21.05
34370;BME280;20635;55.812;37.560;2023-02-20T06:26:41;97402.53;;;23.82;21.10
34370;BME280;20635;55.812;37.560;2023-02-20T06:29:08;97409.75;;;23.83;20.73
34370;BME280;20635;55.812;37.560;2023-02-20T06:31:34;97400.94;;;23.81;21.21
34370;BME280;20635;55.812;37.560;2023-02-20T06:34:01;97401.75;;;23.82;21.01
34370;BME280;20635;55.812;37.560;2023-02-20T06:36:30;97403.72;;;23.81;20.97
34370;BME280;20635;55.812;37.560;2023-02-20T06:38:56;97403.72;;;23.81;20.68
34370;BME280;20635;55.812;37.560;2023-02-20T06:41:22;97408.88;;;23.79;20.86
34370;BME280;20635;55.812;37.560;2023-02-20T06:43:48;97402.47;;;23.78;20.87
34370;BME280;20635;55.812;37.560;2023-02-20T06:46:14;97407.66;;;23.76;20.67
34370;BME280;20635;55.812;37.560;2023-02-20T06:48:49;97410.88;;;23.78;21.03
34370;BME280;20635;55.812;37.560;2023-02-20T06:51:16;97407.22;;;23.74;20.75
34370;BME280;20635;55.812;37.560;2023-02-20T06:53:42;97406.78;;;23.72;20.67
34370;BME280;20635;55.812;37.560;2023-02-20T06:56:09;97417.16;;;23.72;20.67
34370;BME280;20635;55.812;37.560;2023-02-20T06:58:36;97410.78;;;23.71;20.75
34370;BME280;20635;55.812;37.560;2023-02-20T07:01:02;97412.75;;;23.71;21.07
34370;BME280;20635;55.812;37.560;2023-02-20T07:03:28;97415.13;;;23.69;21.08
34370;BME280;20635;55.812;37.560;2023-02-20T07:05:54;97404.31;;;23.67;20.87
34370;BME280;20635;55.812;37.560;2023-02-20T07:08:20;97420.28;;;23.67;20.81
34370;BME280;20635;55.812;37.560;2023-02-20T07:10:46;97410.25;;;23.66;21.12
34370;BME280;20635;55.812;37.560;2023-02-20T07:13:12;97414.25;;;23.65;20.81
34370;BME280;20635;55.812;37.560;2023-02-20T07:15:37;97411.81;;;23.63;20.97
34370;BME280;20635;55.812;37.560;2023-02-20T07:18:03;97408.22;;;23.63;20.73
34370;BME280;20635;55.812;37.560;2023-02-20T07:20:29;97415.78;;;23.62;20.75
34370;BME280;20635;55.812;37.560;2023-02-20T07:22:55;97418.59;;;23.62;20.72
34370;BME280;20635;55.812;37.560;2023-02-20T07:25:21;97416.94;;;23.61;20.78
34370;BME280;20635;55.812;37.560;2023-02-20T07:27:47;97426.16;;;23.62;21.04
34370;BME280;20635;55.812;37.560;2023-02-20T07:30:13;97415.34;;;23.60;20.73
34370;BME280;20635;55.812;37.560;2023-02-20T07:32:39;97422.94;;;23.60;20.99
34370;BME280;20635;55.812;37.560;2023-02-20T07:35:05;97421.31;;;23.59;20.80
34370;BME280;20635;55.812;37.560;2023-02-20T07:37:32;97420.13;;;23.60;20.75
34370;BME280;20635;55.812;37.560;2023-02-20T07:39:58;97416.91;;;23.58;21.01
34370;BME280;20635;55.812;37.560;2023-02-20T07:42:23;97417.72;;;23.58;21.08
34370;BME280;20635;55.812;37.560;2023-02-20T07:44:57;97428.09;;;23.58;20.78
34370;BME280;20635;55.812;37.560;2023-02-20T07:47:23;97427.28;;;23.57;21.17
34370;BME280;20635;55.812;37.560;2023-02-20T07:49:48;97426.47;;;23.57;21.25
34370;BME280;20635;55.812;37.560;2023-02-20T07:52:14;97436.84;;;23.56;20.94
34370;BME280;20635;55.812;37.560;2023-02-20T07:54:40;97437.66;;;23.57;20.83
34370;BME280;20635;55.812;37.560;2023-02-20T07:57:06;97441.63;;;23.55;21.21
34370;BME280;20635;55.812;37.560;2023-02-20T07:59:33;97447.22;;;23.55;20.94
34370;BME280;20635;55.812;37.560;2023-02-20T08:01:58;97447.22;;;23.55;21.09
34370;BME280;20635;55.812;37.560;2023-02-20T08:04:24;97447.22;;;23.55;21.20
34370;BME280;20635;55.812;37.560;2023-02-20T08:06:50;97449.22;;;23.55;21.07
34370;BME280;20635;55.812;37.560;2023-02-20T08:09:16;97438.41;;;23.53;21.23
34370;BME280;20635;55.812;37.560;2023-02-20T08:11:42;97447.59;;;23.54;21.24
34370;BME280;20635;55.812;37.560;2023-02-20T08:14:07;97447.16;;;23.52;21.04
34370;BME280;20635;55.812;37.560;2023-02-20T08:16:33;97451.59;;;23.53;21.24
34370;BME280;20635;55.812;37.560;2023-02-20T08:18:59;97456.34;;;23.52;21.08
34370;BME280;20635;55.812;37.560;2023-02-20T08:21:26;97455.53;;;23.52;20.98
34370;BME280;20635;55.812;37.560;2023-02-20T08:23:52;97453.94;;;23.51;21.17
34370;BME280;20635;55.812;37.560;2023-02-20T08:26:19;97454.72;;;23.51;20.86
34370;BME280;20635;55.812;37.560;2023-02-20T08:28:46;97441.94;;;23.50;21.12
34370;BME280;20635;55.812;37.560;2023-02-20T08:31:12;97448.34;;;23.51;21.09
34370;BME280;20635;55.812;37.560;2023-02-20T08:33:38;97446.72;;;23.50;21.26
34370;BME280;20635;55.812;37.560;2023-02-20T08:36:04;97451.13;;;23.51;20.87
34370;BME280;20635;55.812;37.560;2023-02-20T08:38:37;97461.13;;;23.52;20.96
34370;BME280;20635;55.812;37.560;2023-02-20T08:41:08;97464.31;;;23.50;21.29
34370;BME280;20635;55.812;37.560;2023-02-20T08:43:35;97467.47;;;23.49;21.13
34370;BME280;20635;55.812;37.560;2023-02-20T08:46:04;97468.28;;;23.49;21.25
34370;BME280;20635;55.812;37.560;2023-02-20T08:48:30;97470.28;;;23.49;20.89
34370;BME280;20635;55.812;37.560;2023-02-20T08:50:56;97468.63;;;23.48;21.34
34370;BME280;20635;55.812;37.560;2023-02-20T08:53:22;97466.69;;;23.48;22.26
34370;BME280;20635;55.812;37.560;2023-02-20T08:55:47;97469.47;;;23.48;24.33
34370;BME280;20635;55.812;37.560;2023-02-20T08:58:18;97476.69;;;23.49;25.44
34370;BME280;20635;55.812;37.560;2023-02-20T09:00:44;97466.69;;;23.48;25.59
34370;BME280;20635;55.812;37.560;2023-02-20T09:03:09;97463.06;;;23.48;25.29
34370;BME280;20635;55.812;37.560;2023-02-20T09:05:35;97461.09;;;23.48;25.07
34370;BME280;20635;55.812;37.560;2023-02-20T09:08:02;97452.69;;;23.48;24.48
34370;BME280;20635;55.812;37.560;2023-02-20T09:10:28;97453.50;;;23.49;24.54
34370;BME280;20635;55.812;37.560;2023-02-20T09:12:54;97450.72;;;23.49;23.89
34370;BME280;20635;55.812;37.560;2023-02-20T09:15:20;97449.06;;;23.48;24.01
34370;BME280;20635;55.812;37.560;2023-02-20T09:17:49;97449.53;;;23.50;23.73
34370;BME280;20635;55.812;37.560;2023-02-20T09:20:17;97463.50;;;23.50;23.84
34370;BME280;20635;55.812;37.560;2023-02-20T09:22:46;97467.47;;;23.49;23.46
34370;BME280;20635;55.812;37.560;2023-02-20T09:25:12;97464.69;;;23.49;22.99
34370;BME280;20635;55.812;37.560;2023-02-20T09:27:39;97470.28;;;23.49;23.12
34370;BME280;20635;55.812;37.560;2023-02-20T09:30:05;97480.66;;;23.48;22.95
34370;BME280;20635;55.812;37.560;2023-02-20T09:32:32;97476.69;;;23.49;22.51
34370;BME280;20635;55.812;37.560;2023-02-20T09:34:58;97483.44;;;23.48;22.80
34370;BME280;20635;55.812;37.560;2023-02-20T09:37:25;97479.47;;;23.49;22.71
34370;BME280;20635;55.812;37.560;2023-02-20T09:39:51;97477.84;;;23.48;22.31
34370;BME280;20635;55.812;37.560;2023-02-20T09:44:58;97478.66;;;23.49;22.12
34370;BME280;20635;55.812;37.560;2023-02-20T09:47:42;97475.06;;;23.48;22.31
34370;BME280;20635;55.812;37.560;2023-02-20T09:50:15;97472.28;;;23.48;22.15
34370;BME280;20635;55.812;37.560;2023-02-20T09:52:45;97463.06;;;23.48;22.16
34370;BME280;20635;55.812;37.560;2023-02-20T09:55:18;97466.69;;;23.48;22.26
34370;BME280;20635;55.812;37.560;2023-02-20T09:57:49;97461.09;;;23.48;21.84
34370;BME280;20635;55.812;37.560;2023-02-20T10:00:23;97460.78;;;23.53;22.26
34370;BME280;20635;55.812;37.560;2023-02-20T10:02:58;97471.09;;;23.49;21.72
34370;BME280;20635;55.812;37.560;2023-02-20T10:05:30;97461.44;;;23.47;22.15
34370;BME280;20635;55.812;37.560;2023-02-20T10:07:57;97462.22;;;23.44;21.70
34370;BME280;20635;55.812;37.560;2023-02-20T10:10:30;97452.63;;;23.45;21.52
34370;BME280;20635;55.812;37.560;2023-02-20T10:18:29;97458.56;;;23.43;21.82
34370;BME280;20635;55.812;37.560;2023-02-20T10:21:06;97462.56;;;23.42;21.76
34370;BME280;20635;55.812;37.560;2023-02-20T10:23:44;97459.75;;;23.42;21.61
34370;BME280;20635;55.812;37.560;2023-02-20T10:26:36;97462.13;;;23.40;21.55
34370;BME280;20635;55.812;37.560;2023-02-20T10:29:14;97468.94;;;23.43;21.37
34370;BME280;20635;55.812;37.560;2023-02-20T10:31:44;97468.53;;;23.41;21.38
34370;BME280;20635;55.812;37.560;2023-02-20T10:34:22;97465.41;;;23.46;21.43
34370;BME280;20635;55.812;37.560;2023-02-20T10:36:54;97458.16;;;23.41;21.59
34370;BME280;20635;55.812;37.560;2023-02-20T10:39:21;97461.03;;;23.45;21.52
34370;BME280;20635;55.812;37.560;2023-02-20T10:41:52;97460.53;;;23.39;21.41
34370;BME280;20635;55.812;37.560;2023-02-20T10:44:37;97457.72;;;23.39;21.23
34370;BME280;20635;55.812;37.560;2023-02-20T10:47:05;97458.47;;;23.36;21.29
34370;BME280;20635;55.812;37.560;2023-02-20T10:52:28;97456.06;;;23.35;20.99
34370;BME280;20635;55.812;37.560;2023-02-20T10:55:07;97462.44;;;23.35;21.22
34370;BME280;20635;55.812;37.560;2023-02-20T10:57:41;97464.44;;;23.35;21.08
34370;BME280;20635;55.812;37.560;2023-02-20T11:00:15;97463.19;;;23.32;21.10
34370;BME280;20635;55.812;37.560;2023-02-20T11:02:53;97457.22;;;23.34;21.18
34370;BME280;20635;55.812;37.560;2023-02-20T11:05:24;97460.38;;;23.32;20.90
34370;BME280;20635;55.812;37.560;2023-02-20T11:07:52;97462.38;;;23.32;21.22
34370;BME280;20635;55.812;37.560;2023-02-20T11:10:18;97459.59;;;23.32;21.10
34370;BME280;20635;55.812;37.560;2023-02-20T11:12:56;97457.22;;;23.34;21.03
34370;BME280;20635;55.812;37.560;2023-02-20T11:15:32;97456.78;;;23.32;21.21
34370;BME280;20635;55.812;37.560;2023-02-20T11:17:59;97450.41;;;23.31;21.06
34370;BME280;20635;55.812;37.560;2023-02-20T11:23:01;97457.16;;;23.30;21.04
34370;BME280;20635;55.812;37.560;2023-02-20T11:25:35;97457.16;;;23.30;20.81
34370;BME280;20635;55.812;37.560;2023-02-20T11:28:20;97458.78;;;23.31;20.97
34370;BME280;20635;55.812;37.560;2023-02-20T11:30:49;97459.50;;;23.28;21.00
34370;BME280;20635;55.812;37.560;2023-02-20T11:33:24;97475.47;;;23.27;20.79
34370;BME280;20635;55.812;37.560;2023-02-20T11:36:07;97476.28;;;23.28;20.91
34370;BME280;20635;55.812;37.560;2023-02-20T11:38:35;97471.06;;;23.26;20.91
34370;BME280;20635;55.812;37.560;2023-02-20T11:43:42;97476.28;;;23.28;21.09
34370;BME280;20635;55.812;37.560;2023-02-20T11:46:16;97479.06;;;23.28;20.81
34370;BME280;20635;55.812;37.560;2023-02-20T11:49:05;97477.88;;;23.29;20.96
34370;BME280;20635;55.812;37.560;2023-02-20T11:51:39;97481.44;;;23.26;20.80
34370;BME280;20635;55.812;37.560;2023-02-20T11:54:16;97480.25;;;23.27;20.89
34370;BME280;20635;55.812;37.560;2023-02-20T11:57:05;97480.25;;;23.27;20.74
34370;BME280;20635;55.812;37.560;2023-02-20T12:05:07;97474.22;;;23.25;20.82
34370;BME280;20635;55.812;37.560;2023-02-20T12:12:54;97481.28;;;23.19;20.71
34370;BME280;20635;55.812;37.560;2023-02-20T12:15:26;97477.31;;;23.20;20.75
34370;BME280;20635;55.812;37.560;2023-02-20T12:20:36;97470.50;;;23.17;20.99
34370;BME280;20635;55.812;37.560;2023-02-20T12:28:43;97476.59;;;23.23;20.98
34370;BME280;20635;55.812;37.560;2023-02-20T12:36:54;97480.88;;;23.17;21.10
34370;BME280;20635;55.812;37.560;2023-02-20T12:42:07;97484.00;;;23.15;20.88
34370;BME280;20635;55.812;37.560;2023-02-20T12:45:51;97487.19;;;23.14;20.92
34370;BME280;20635;55.812;37.560;2023-02-20T12:47:43;97480.72;;;23.10;21.09
34370;BME280;20635;55.812;37.560;2023-02-20T12:50:24;97481.53;;;23.10;20.83
34370;BME280;20635;55.812;37.560;2023-02-20T12:53:11;97483.91;;;23.08;20.62
34370;BME280;20635;55.812;37.560;2023-02-20T13:01:49;97478.22;;;23.04;20.63
34370;BME280;20635;55.812;37.560;2023-02-20T13:04:27;97477.84;;;23.06;20.89
34370;BME280;20635;55.812;37.560;2023-02-20T13:11:51;97480.56;;;23.02;20.68
34370;BME280;20635;55.812;37.560;2023-02-20T13:14:41;97485.81;;;23.04;20.86
34370;BME280;20635;55.812;37.560;2023-02-20T13:17:24;97484.19;;;23.03;20.81
34370;BME280;20635;55.812;37.560;2023-02-20T13:20:02;97476.56;;;23.00;20.70
34370;BME280;20635;55.812;37.560;2023-02-20T13:22:31;97474.94;;;22.99;20.64
34370;BME280;20635;55.812;37.560;2023-02-20T13:25:36;97470.59;;;23.01;20.81
34370;BME280;20635;55.812;37.560;2023-02-20T13:31:10;97477.34;;;23.00;20.65
34370;BME280;20635;55.812;37.560;2023-02-20T13:33:38;97475.66;;;22.96;20.78
34370;BME280;20635;55.812;37.560;2023-02-20T13:36:06;97476.47;;;22.96;20.68
34370;BME280;20635;55.812;37.560;2023-02-20T13:38:39;97469.28;;;22.95;20.99
34370;BME280;20635;55.812;37.560;2023-02-20T13:41:07;97472.88;;;22.96;20.83
34370;BME280;20635;55.812;37.560;2023-02-20T13:43:35;97474.88;;;22.95;20.94
34370;BME280;20635;55.812;37.560;2023-02-20T13:53:50;97480.06;;;22.97;20.97
34370;BME280;20635;55.812;37.560;2023-02-20T13:59:13;97481.69;;;22.98;21.07
34370;BME280;20635;55.812;37.560;2023-02-20T14:01:59;97470.50;;;22.98;20.97
34370;BME280;20635;55.812;37.560;2023-02-20T14:04:25;97476.84;;;22.95;20.98
34370;BME280;20635;55.812;37.560;2023-02-20T14:06:53;97483.25;;;22.95;20.93
34370;BME280;20635;55.812;37.560;2023-02-20T14:09:25;97481.25;;;22.96;21.05
34370;BME280;20635;55.812;37.560;2023-02-20T14:12:02;97472.88;;;22.96;20.74
34370;BME280;20635;55.812;37.560;2023-02-20T14:14:36;97478.03;;;22.94;20.80
34370;BME280;20635;55.812;37.560;2023-02-20T14:19:41;97482.78;;;22.93;20.78
34370;BME280;20635;55.812;37.560;2023-02-20T14:27:30;97484.44;;;22.94;20.76
34370;BME280;20635;55.812;37.560;2023-02-20T14:32:35;97489.56;;;22.92;20.81
34370;BME280;20635;55.812;37.560;2023-02-20T14:35:12;97489.56;;;22.92;20.70
34370;BME280;20635;55.812;37.560;2023-02-20T14:38:07;97498.81;;;22.96;20.80
34370;BME280;20635;55.812;37.560;2023-02-20T14:40:40;97492.00;;;22.94;21.13
34370;BME280;20635;55.812;37.560;2023-02-20T14:43:17;97498.38;;;22.94;20.97
34370;BME280;20635;55.812;37.560;2023-02-20T14:45:45;97492.34;;;22.92;20.95
34370;BME280;20635;55.812;37.560;2023-02-20T14:48:27;97498.38;;;22.94;20.90
34370;BME280;20635;55.812;37.560;2023-02-20T14:51:22;97497.22;;;22.95;20.74
34370;BME280;20635;55.812;37.560;2023-02-20T14:53:57;97494.78;;;22.94;20.93